sensor_id;sensor_type;location;lat;lon;timestamp;pressure;altitude;pressure_sealevel;temperature;humidity
19510;BME280;9896;42.486;26.506;2023-02-12T00:01:38;100864.97;;;-3.83;65.55
19510;BME280;9896;42.486;26.506;2023-02-12T00:04:03;100874.91;;;-3.73;65.22
19510;BME280;9896;42.486;26.506;2023-02-12T00:06:29;100868.81;;;-3.74;65.19
19510;BME280;9896;42.486;26.506;2023-02-12T00:08:56;100867.69;;;-3.70;65.26
19510;BME280;9896;42.486;26.506;2023-02-12T00:11:24;100871.31;;;-3.87;65.88
19510;BME280;9896;42.486;26.506;2023-02-12T00:13:50;100880.59;;;-3.81;65.97
19510;BME280;9896;42.486;26.506;2023-02-12T00:16:19;100871.31;;;-3.87;65.89
19510;BME280;9896;42.486;26.506;2023-02-12T00:18:45;100874.06;;;-3.74;66.24
19510;BME280;9896;42.486;26.506;2023-02-12T00:21:11;100873.97;;;-3.58;65.39
19510;BME280;9896;42.486;26.506;2023-02-12T00:23:39;100875.78;;;-3.59;65.73
19510;BME280;9896;42.486;26.506;2023-02-12T00:26:12;100876.44;;;-3.55;66.14
19510;BME280;9896;42.486;26.506;2023-02-12T00:28:38;100869.94;;;-3.50;65.30
19510;BME280;9896;42.486;26.506;2023-02-12T00:31:08;100864.53;;;-3.47;65.11
19510;BME280;9896;42.486;26.506;2023-02-12T00:33:34;100853.78;;;-3.56;66.12
19510;BME280;9896;42.486;26.506;2023-02-12T00:36:00;100851.34;;;-3.59;66.42
19510;BME280;9896;42.486;26.506;2023-02-12T00:38:26;100855.53;;;-3.29;65.02
19510;BME280;9896;42.486;26.506;2023-02-12T00:40:52;100859.47;;;-3.50;65.33
19510;BME280;9896;42.486;26.506;2023-02-12T00:43:17;100862.75;;;-3.60;66.08
19510;BME280;9896;42.486;26.506;2023-02-12T00:45:44;100864.34;;;-3.58;66.86
19510;BME280;9896;42.486;26.506;2023-02-12T00:48:11;100866.31;;;-3.61;67.06
19510;BME280;9896;42.486;26.506;2023-02-12T00:50:36;100852.81;;;-3.41;66.75
19510;BME280;9896;42.486;26.506;2023-02-12T00:53:02;100838.13;;;-3.44;66.92
19510;BME280;9896;42.486;26.506;2023-02-12T00:55:27;100838.75;;;-3.26;66.98
19510;BME280;9896;42.486;26.506;2023-02-12T00:57:53;100833.34;;;-3.23;67.82
19510;BME280;9896;42.486;26.506;2023-02-12T01:00:18;100831.00;;;-3.28;67.05
19510;BME280;9896;42.486;26.506;2023-02-12T01:02:44;100830.16;;;-3.28;67.79
19510;BME280;9896;42.486;26.506;2023-02-12T01:05:11;100834.19;;;-3.37;67.76
19510;BME280;9896;42.486;26.506;2023-02-12T01:07:37;100835.72;;;-3.47;69.10
19510;BME280;9896;42.486;26.506;2023-02-12T01:10:06;100836.16;;;-3.54;68.96
19510;BME280;9896;42.486;26.506;2023-02-12T01:12:32;100837.56;;;-3.49;69.51
19510;BME280;9896;42.486;26.506;2023-02-12T01:14:57;100836.09;;;-3.39;69.04
19510;BME280;9896;42.486;26.506;2023-02-12T01:17:23;100837.94;;;-3.41;69.69
19510;BME280;9896;42.486;26.506;2023-02-12T01:19:48;100833.38;;;-3.51;69.96
19510;BME280;9896;42.486;26.506;2023-02-12T01:22:14;100831.75;;;-3.54;71.16
19510;BME280;9896;42.486;26.506;2023-02-12T01:24:40;100827.16;;;-3.50;70.77
19510;BME280;9896;42.486;26.506;2023-02-12T01:27:06;100814.44;;;-3.42;70.90
19510;BME280;9896;42.486;26.506;2023-02-12T01:29:31;100823.78;;;-3.38;71.06
19510;BME280;9896;42.486;26.506;2023-02-12T01:31:57;100818.09;;;-3.31;71.87
19510;BME280;9896;42.486;26.506;2023-02-12T01:34:23;100821.34;;;-3.27;72.61
19510;BME280;9896;42.486;26.506;2023-02-12T01:36:48;100814.00;;;-3.08;72.24
19510;BME280;9896;42.486;26.506;2023-02-12T01:39:14;100825.13;;;-3.04;72.17
19510;BME280;9896;42.486;26.506;2023-02-12T01:41:42;100822.72;;;-3.21;72.03
19510;BME280;9896;42.486;26.506;2023-02-12T01:44:20;100820.97;;;-3.21;72.47
19510;BME280;9896;42.486;26.506;2023-02-12T01:46:48;100822.38;;;-3.30;72.82
19510;BME280;9896;42.486;26.506;2023-02-12T01:49:35;100821.66;;;-3.32;72.91
19510;BME280;9896;42.486;26.506;2023-02-12T01:52:24;100823.91;;;-3.40;73.88
19510;BME280;9896;42.486;26.506;2023-02-12T01:54:52;100821.19;;;-3.52;74.73
19510;BME280;9896;42.486;26.506;2023-02-12T01:57:19;100806.00;;;-3.33;74.42
19510;BME280;9896;42.486;26.506;2023-02-12T01:59:47;100803.97;;;-3.56;76.20
19510;BME280;9896;42.486;26.506;2023-02-12T02:02:15;100821.00;;;-3.35;75.97
19510;BME280;9896;42.486;26.506;2023-02-12T02:04:50;100817.19;;;-3.17;75.90
19510;BME280;9896;42.486;26.506;2023-02-12T02:07:18;100809.53;;;-3.06;76.22
19510;BME280;9896;42.486;26.506;2023-02-12T02:09:44;100813.81;;;-3.05;76.11
19510;BME280;9896;42.486;26.506;2023-02-12T02:12:10;100812.44;;;-3.10;76.34
19510;BME280;9896;42.486;26.506;2023-02-12T02:14:57;100803.88;;;-3.00;76.41
19510;BME280;9896;42.486;26.506;2023-02-12T02:31:19;100799.56;;;-3.01;77.99
19510;BME280;9896;42.486;26.506;2023-02-12T02:39:33;100784.78;;;-2.89;77.70
19510;BME280;9896;42.486;26.506;2023-02-12T02:44:38;100788.56;;;-3.20;78.68
19510;BME280;9896;42.486;26.506;2023-02-12T02:47:10;100785.44;;;-3.12;78.81
19510;BME280;9896;42.486;26.506;2023-02-12T02:49:46;100783.94;;;-3.02;78.36
19510;BME280;9896;42.486;26.506;2023-02-12T02:52:19;100771.59;;;-3.14;77.73
19510;BME280;9896;42.486;26.506;2023-02-12T02:54:49;100774.94;;;-3.12;77.83
19510;BME280;9896;42.486;26.506;2023-02-12T02:57:40;100786.56;;;-3.16;78.32
19510;BME280;9896;42.486;26.506;2023-02-12T03:00:16;100782.84;;;-3.67;78.72
19510;BME280;9896;42.486;26.506;2023-02-12T03:02:48;100785.78;;;-3.45;79.08
19510;BME280;9896;42.486;26.506;2023-02-12T03:05:26;100784.72;;;-3.29;78.54
19510;BME280;9896;42.486;26.506;2023-02-12T03:08:04;100773.38;;;-3.56;79.71
19510;BME280;9896;42.486;26.506;2023-02-12T03:10:41;100780.91;;;-3.37;79.99
19510;BME280;9896;42.486;26.506;2023-02-12T03:13:27;100788.03;;;-3.39;80.38
19510;BME280;9896;42.486;26.506;2023-02-12T03:16:01;100769.97;;;-3.58;79.81
19510;BME280;9896;42.486;26.506;2023-02-12T03:18:35;100772.56;;;-3.30;79.09
19510;BME280;9896;42.486;26.506;2023-02-12T03:21:10;100771.53;;;-3.27;79.77
19510;BME280;9896;42.486;26.506;2023-02-12T03:23:41;100773.19;;;-3.26;79.91
19510;BME280;9896;42.486;26.506;2023-02-12T03:26:15;100780.91;;;-3.23;79.85
19510;BME280;9896;42.486;26.506;2023-02-12T03:28:45;100776.50;;;-3.22;80.29
19510;BME280;9896;42.486;26.506;2023-02-12T03:39:09;100780.94;;;-2.84;79.87
19510;BME280;9896;42.486;26.506;2023-02-12T03:41:45;100774.97;;;-2.86;79.75
19510;BME280;9896;42.486;26.506;2023-02-12T03:47:18;100790.38;;;-2.94;80.54
19510;BME280;9896;42.486;26.506;2023-02-12T03:52:33;100778.34;;;-3.10;81.21
19510;BME280;9896;42.486;26.506;2023-02-12T03:54:58;100779.56;;;-3.16;80.91
19510;BME280;9896;42.486;26.506;2023-02-12T03:57:27;100781.25;;;-3.15;81.80
19510;BME280;9896;42.486;26.506;2023-02-12T03:59:57;100771.53;;;-3.27;82.76
19510;BME280;9896;42.486;26.506;2023-02-12T04:02:23;100769.91;;;-3.56;83.02
19510;BME280;9896;42.486;26.506;2023-02-12T04:04:50;100764.19;;;-3.77;84.69
19510;BME280;9896;42.486;26.506;2023-02-12T04:07:16;100765.13;;;-3.78;85.76
19510;BME280;9896;42.486;26.506;2023-02-12T04:09:42;100764.84;;;-3.73;85.74
19510;BME280;9896;42.486;26.506;2023-02-12T04:17:56;100761.94;;;-3.69;86.38
19510;BME280;9896;42.486;26.506;2023-02-12T04:26:08;100767.72;;;-3.09;84.36
19510;BME280;9896;42.486;26.506;2023-02-12T04:34:20;100772.47;;;-3.28;85.62
19510;BME280;9896;42.486;26.506;2023-02-12T04:36:54;100785.56;;;-3.14;85.60
19510;BME280;9896;42.486;26.506;2023-02-12T04:39:24;100788.53;;;-3.06;85.80
19510;BME280;9896;42.486;26.506;2023-02-12T04:41:51;100775.72;;;-3.10;85.19
19510;BME280;9896;42.486;26.506;2023-02-12T04:44:26;100792.66;;;-3.02;84.77
19510;BME280;9896;42.486;26.506;2023-02-12T04:46:52;100810.66;;;-3.10;85.73
19510;BME280;9896;42.486;26.506;2023-02-12T04:49:19;100817.75;;;-2.98;85.64
19510;BME280;9896;42.486;26.506;2023-02-12T04:51:45;100816.28;;;-3.16;86.17
19510;BME280;9896;42.486;26.506;2023-02-12T04:54:13;100811.09;;;-3.03;85.71
19510;BME280;9896;42.486;26.506;2023-02-12T04:56:39;100829.59;;;-2.92;85.66
19510;BME280;9896;42.486;26.506;2023-02-12T04:59:05;100839.09;;;-3.04;86.34
19510;BME280;9896;42.486;26.506;2023-02-12T05:01:32;100834.16;;;-3.08;86.33
19510;BME280;9896;42.486;26.506;2023-02-12T05:03:58;100843.22;;;-3.00;86.44
19510;BME280;9896;42.486;26.506;2023-02-12T05:06:23;100832.72;;;-2.73;85.41
19510;BME280;9896;42.486;26.506;2023-02-12T05:08:51;100825.28;;;-2.93;85.97
19510;BME280;9896;42.486;26.506;2023-02-12T05:11:17;100842.06;;;-2.82;85.61
19510;BME280;9896;42.486;26.506;2023-02-12T05:13:42;100855.00;;;-2.93;86.44
19510;BME280;9896;42.486;26.506;2023-02-12T05:16:08;100853.13;;;-2.91;86.56
19510;BME280;9896;42.486;26.506;2023-02-12T05:18:34;100861.72;;;-2.89;86.49
19510;BME280;9896;42.486;26.506;2023-02-12T05:21:03;100858.38;;;-2.91;86.98
19510;BME280;9896;42.486;26.506;2023-02-12T05:23:31;100860.28;;;-2.66;86.43
19510;BME280;9896;42.486;26.506;2023-02-12T05:25:58;100869.78;;;-2.77;87.00
19510;BME280;9896;42.486;26.506;2023-02-12T05:28:24;100864.53;;;-2.77;86.50
19510;BME280;9896;42.486;26.506;2023-02-12T05:30:50;100855.91;;;-2.79;87.07
19510;BME280;9896;42.486;26.506;2023-02-12T05:33:16;100879.38;;;-2.64;86.57
19510;BME280;9896;42.486;26.506;2023-02-12T05:35:41;100875.47;;;-2.44;85.74
19510;BME280;9896;42.486;26.506;2023-02-12T05:38:07;100882.38;;;-2.29;85.65
19510;BME280;9896;42.486;26.506;2023-02-12T05:40:32;100880.75;;;-2.31;85.84
19510;BME280;9896;42.486;26.506;2023-02-12T05:42:58;100875.06;;;-2.38;86.07
19510;BME280;9896;42.486;26.506;2023-02-12T05:45:24;100888.69;;;-2.19;85.94
19510;BME280;9896;42.486;26.506;2023-02-12T05:47:53;100900.13;;;-2.20;86.60
19510;BME280;9896;42.486;26.506;2023-02-12T05:50:18;100889.47;;;-2.31;86.26
19510;BME280;9896;42.486;26.506;2023-02-12T05:52:44;100898.41;;;-2.33;86.53
19510;BME280;9896;42.486;26.506;2023-02-12T05:55:10;100904.09;;;-2.27;86.38
19510;BME280;9896;42.486;26.506;2023-02-12T05:57:35;100920.22;;;-2.46;87.11
19510;BME280;9896;42.486;26.506;2023-02-12T06:00:05;100892.91;;;-2.43;86.70
19510;BME280;9896;42.486;26.506;2023-02-12T06:02:33;100910.16;;;-2.39;87.14
19510;BME280;9896;42.486;26.506;2023-02-12T06:04:58;100902.78;;;-2.47;88.24
19510;BME280;9896;42.486;26.506;2023-02-12T06:07:24;100905.03;;;-2.28;87.01
19510;BME280;9896;42.486;26.506;2023-02-12T06:09:50;100904.44;;;-2.19;87.24
19510;BME280;9896;42.486;26.506;2023-02-12T06:12:15;100915.25;;;-2.23;86.97
19510;BME280;9896;42.486;26.506;2023-02-12T06:14:41;100917.69;;;-2.20;87.16
19510;BME280;9896;42.486;26.506;2023-02-12T06:17:07;100937.78;;;-2.07;87.18
19510;BME280;9896;42.486;26.506;2023-02-12T06:19:32;100932.59;;;-1.81;85.77
19510;BME280;9896;42.486;26.506;2023-02-12T06:21:58;100930.88;;;-1.95;86.27
19510;BME280;9896;42.486;26.506;2023-02-12T06:24:24;100928.22;;;-1.68;85.57
19510;BME280;9896;42.486;26.506;2023-02-12T06:26:50;100923.03;;;-1.70;85.17
19510;BME280;9896;42.486;26.506;2023-02-12T06:29:20;100935.06;;;-1.53;84.52
19510;BME280;9896;42.486;26.506;2023-02-12T06:31:45;100911.56;;;-1.81;85.10
19510;BME280;9896;42.486;26.506;2023-02-12T06:34:12;100928.50;;;-1.85;85.68
19510;BME280;9896;42.486;26.506;2023-02-12T06:36:40;100909.41;;;-2.14;86.66
19510;BME280;9896;42.486;26.506;2023-02-12T06:39:07;100915.53;;;-2.01;86.75
19510;BME280;9896;42.486;26.506;2023-02-12T06:41:33;100922.94;;;-1.81;86.51
19510;BME280;9896;42.486;26.506;2023-02-12T06:43:58;100930.31;;;-1.61;85.44
19510;BME280;9896;42.486;26.506;2023-02-12T06:46:24;100932.00;;;-1.60;85.44
19510;BME280;9896;42.486;26.506;2023-02-12T06:48:54;100933.25;;;-1.65;86.11
19510;BME280;9896;42.486;26.506;2023-02-12T06:51:20;100945.06;;;-1.33;84.93
19510;BME280;9896;42.486;26.506;2023-02-12T06:53:48;100932.28;;;-1.77;86.21
19510;BME280;9896;42.486;26.506;2023-02-12T06:56:14;100945.75;;;-1.81;87.58
19510;BME280;9896;42.486;26.506;2023-02-12T06:58:43;100946.16;;;-1.88;87.60
19510;BME280;9896;42.486;26.506;2023-02-12T07:01:15;100939.09;;;-1.87;87.02
19510;BME280;9896;42.486;26.506;2023-02-12T07:03:47;100947.09;;;-1.89;87.60
19510;BME280;9896;42.486;26.506;2023-02-12T07:06:13;100944.19;;;-1.71;87.43
19510;BME280;9896;42.486;26.506;2023-02-12T07:08:39;100947.81;;;-1.87;87.40
19510;BME280;9896;42.486;26.506;2023-02-12T07:11:05;100959.22;;;-1.73;87.61
19510;BME280;9896;42.486;26.506;2023-02-12T07:13:32;100937.97;;;-1.70;87.37
19510;BME280;9896;42.486;26.506;2023-02-12T07:16:05;100953.13;;;-1.61;86.46
19510;BME280;9896;42.486;26.506;2023-02-12T07:18:33;100960.75;;;-1.44;86.03
19510;BME280;9896;42.486;26.506;2023-02-12T07:20:58;100949.59;;;-1.35;85.12
19510;BME280;9896;42.486;26.506;2023-02-12T07:23:24;100948.22;;;-1.28;84.08
19510;BME280;9896;42.486;26.506;2023-02-12T07:25:58;100964.00;;;-0.90;83.13
19510;BME280;9896;42.486;26.506;2023-02-12T07:28:24;100957.75;;;-0.76;82.46
19510;BME280;9896;42.486;26.506;2023-02-12T07:30:50;100959.91;;;-0.94;81.36
19510;BME280;9896;42.486;26.506;2023-02-12T07:33:16;100955.72;;;-0.73;79.74
19510;BME280;9896;42.486;26.506;2023-02-12T07:35:42;100955.19;;;-0.65;79.07
19510;BME280;9896;42.486;26.506;2023-02-12T07:38:07;100952.53;;;-0.65;79.24
19510;BME280;9896;42.486;26.506;2023-02-12T07:40:33;100940.72;;;-0.96;79.52
19510;BME280;9896;42.486;26.506;2023-02-12T07:42:58;100946.59;;;-0.93;79.83
19510;BME280;9896;42.486;26.506;2023-02-12T07:45:24;100955.66;;;-0.84;79.60
19510;BME280;9896;42.486;26.506;2023-02-12T07:47:50;100940.47;;;-0.80;78.55
19510;BME280;9896;42.486;26.506;2023-02-12T07:50:16;100958.72;;;-0.41;76.65
19510;BME280;9896;42.486;26.506;2023-02-12T07:52:41;100953.59;;;-0.31;76.20
19510;BME280;9896;42.486;26.506;2023-02-12T07:55:07;100945.94;;;-0.34;75.40
19510;BME280;9896;42.486;26.506;2023-02-12T07:57:35;100948.78;;;-0.61;73.36
19510;BME280;9896;42.486;26.506;2023-02-12T08:00:03;100954.44;;;-0.31;73.90
19510;BME280;9896;42.486;26.506;2023-02-12T08:02:28;100945.09;;;-0.11;73.81
19510;BME280;9896;42.486;26.506;2023-02-12T08:04:58;100946.66;;;0.15;71.21
19510;BME280;9896;42.486;26.506;2023-02-12T08:07:23;100952.03;;;0.14;70.90
19510;BME280;9896;42.486;26.506;2023-02-12T08:09:49;100934.56;;;0.24;71.04
19510;BME280;9896;42.486;26.506;2023-02-12T08:12:16;100960.81;;;0.25;71.64
19510;BME280;9896;42.486;26.506;2023-02-12T08:14:42;100959.31;;;0.10;71.83
19510;BME280;9896;42.486;26.506;2023-02-12T08:17:07;100961.16;;;0.21;72.14
19510;BME280;9896;42.486;26.506;2023-02-12T08:19:34;100945.53;;;0.07;73.30
19510;BME280;9896;42.486;26.506;2023-02-12T08:21:59;100953.31;;;0.43;72.01
19510;BME280;9896;42.486;26.506;2023-02-12T08:24:27;100957.66;;;0.44;72.46
19510;BME280;9896;42.486;26.506;2023-02-12T08:26:54;100956.81;;;0.55;72.75
19510;BME280;9896;42.486;26.506;2023-02-12T08:29:22;100958.06;;;0.73;72.33
19510;BME280;9896;42.486;26.506;2023-02-12T08:31:50;100952.91;;;0.71;72.39
19510;BME280;9896;42.486;26.506;2023-02-12T08:34:24;100971.97;;;0.75;72.82
19510;BME280;9896;42.486;26.506;2023-02-12T08:36:51;100963.84;;;1.00;70.89
19510;BME280;9896;42.486;26.506;2023-02-12T08:39:21;100958.94;;;0.96;68.97
19510;BME280;9896;42.486;26.506;2023-02-12T08:41:47;100964.47;;;0.92;68.80
19510;BME280;9896;42.486;26.506;2023-02-12T08:44:13;100959.66;;;0.98;68.69
19510;BME280;9896;42.486;26.506;2023-02-12T08:46:43;100964.81;;;0.88;69.25
19510;BME280;9896;42.486;26.506;2023-02-12T08:49:13;100958.19;;;1.27;66.71
19510;BME280;9896;42.486;26.506;2023-02-12T08:51:41;100957.84;;;1.43;67.10
19510;BME280;9896;42.486;26.506;2023-02-12T08:54:09;100958.78;;;1.53;66.48
19510;BME280;9896;42.486;26.506;2023-02-12T08:56:36;100954.38;;;1.85;65.55
19510;BME280;9896;42.486;26.506;2023-02-12T08:59:03;100966.13;;;1.92;65.70
19510;BME280;9896;42.486;26.506;2023-02-12T09:01:31;100969.06;;;1.78;65.86
19510;BME280;9896;42.486;26.506;2023-02-12T09:03:58;100959.25;;;2.01;65.65
19510;BME280;9896;42.486;26.506;2023-02-12T09:06:25;100959.22;;;2.32;64.71
19510;BME280;9896;42.486;26.506;2023-02-12T09:08:52;100959.72;;;2.58;63.52
19510;BME280;9896;42.486;26.506;2023-02-12T09:11:23;100962.22;;;3.01;61.33
19510;BME280;9896;42.486;26.506;2023-02-12T09:13:56;100953.72;;;3.07;60.34
19510;BME280;9896;42.486;26.506;2023-02-12T09:16:23;100956.59;;;3.35;58.60
19510;BME280;9896;42.486;26.506;2023-02-12T09:18:49;100956.31;;;3.78;55.84
19510;BME280;9896;42.486;26.506;2023-02-12T09:21:15;100952.16;;;3.94;56.53
19510;BME280;9896;42.486;26.506;2023-02-12T09:23:42;100960.66;;;4.36;53.89
19510;BME280;9896;42.486;26.506;2023-02-12T09:26:11;100960.25;;;4.41;53.41
19510;BME280;9896;42.486;26.506;2023-02-12T09:28:37;100958.97;;;3.97;54.33
19510;BME280;9896;42.486;26.506;2023-02-12T09:31:10;100947.41;;;4.27;54.14
19510;BME280;9896;42.486;26.506;2023-02-12T09:33:37;100959.84;;;5.01;51.38
19510;BME280;9896;42.486;26.506;2023-02-12T09:36:04;100966.94;;;5.20;50.12
19510;BME280;9896;42.486;26.506;2023-02-12T09:38:31;100957.06;;;5.30;49.36
19510;BME280;9896;42.486;26.506;2023-02-12T09:46:26;100964.53;;;5.81;47.12
19510;BME280;9896;42.486;26.506;2023-02-12T09:48:56;100972.19;;;6.47;46.92
19510;BME280;9896;42.486;26.506;2023-02-12T09:51:25;100966.47;;;6.42;46.27
19510;BME280;9896;42.486;26.506;2023-02-12T09:54:20;100976.03;;;6.70;45.79
19510;BME280;9896;42.486;26.506;2023-02-12T09:57:13;100969.16;;;6.42;46.02
19510;BME280;9896;42.486;26.506;2023-02-12T09:59:55;100953.63;;;6.37;45.98
19510;BME280;9896;42.486;26.506;2023-02-12T10:02:22;100974.03;;;6.11;46.75
19510;BME280;9896;42.486;26.506;2023-02-12T10:04:49;100967.63;;;6.04;46.98
19510;BME280;9896;42.486;26.506;2023-02-12T10:15:34;100980.56;;;5.99;47.96
19510;BME280;9896;42.486;26.506;2023-02-12T10:20:52;100972.94;;;5.86;48.68
19510;BME280;9896;42.486;26.506;2023-02-12T10:25:56;100973.94;;;6.56;47.08
19510;BME280;9896;42.486;26.506;2023-02-12T10:28:30;100979.94;;;6.58;46.17
19510;BME280;9896;42.486;26.506;2023-02-12T10:31:01;100987.25;;;6.03;48.17
19510;BME280;9896;42.486;26.506;2023-02-12T10:33:51;100970.28;;;5.86;48.35
19510;BME280;9896;42.486;26.506;2023-02-12T10:36:42;100985.03;;;5.98;48.44
19510;BME280;9896;42.486;26.506;2023-02-12T10:39:24;100984.81;;;6.10;48.34
19510;BME280;9896;42.486;26.506;2023-02-12T10:42:13;100988.47;;;6.26;47.74
19510;BME280;9896;42.486;26.506;2023-02-12T10:44:42;100985.34;;;6.48;46.31
19510;BME280;9896;42.486;26.506;2023-02-12T10:47:33;100988.78;;;6.59;46.82
19510;BME280;9896;42.486;26.506;2023-02-12T10:50:01;100991.22;;;6.52;46.44
19510;BME280;9896;42.486;26.506;2023-02-12T10:52:56;100987.78;;;6.42;46.32
19510;BME280;9896;42.486;26.506;2023-02-12T10:55:34;100996.56;;;6.34;47.32
19510;BME280;9896;42.486;26.506;2023-02-12T10:58:02;100991.88;;;6.72;45.67
19510;BME280;9896;42.486;26.506;2023-02-12T11:00:36;100999.03;;;6.71;45.66
19510;BME280;9896;42.486;26.506;2023-02-12T11:05:42;100997.50;;;7.12;43.63
19510;BME280;9896;42.486;26.506;2023-02-12T11:08:30;101001.75;;;7.31;43.82
19510;BME280;9896;42.486;26.506;2023-02-12T11:11:29;101010.13;;;7.10;42.36
19510;BME280;9896;42.486;26.506;2023-02-12T11:16:31;100999.81;;;6.64;44.60
19510;BME280;9896;42.486;26.506;2023-02-12T11:18:59;101000.41;;;7.01;43.43
19510;BME280;9896;42.486;26.506;2023-02-12T11:21:25;101000.59;;;7.25;43.38
19510;BME280;9896;42.486;26.506;2023-02-12T11:23:51;100998.09;;;7.06;43.12
19510;BME280;9896;42.486;26.506;2023-02-12T11:29:02;100992.59;;;6.56;42.38
19510;BME280;9896;42.486;26.506;2023-02-12T11:31:40;100985.13;;;6.85;41.27
19510;BME280;9896;42.486;26.506;2023-02-12T11:36:39;100982.75;;;7.34;40.76
19510;BME280;9896;42.486;26.506;2023-02-12T11:41:42;100992.78;;;7.66;40.19
19510;BME280;9896;42.486;26.506;2023-02-12T11:44:15;100995.22;;;7.59;39.88
19510;BME280;9896;42.486;26.506;2023-02-12T11:47:10;100992.88;;;7.56;39.77
19510;BME280;9896;42.486;26.506;2023-02-12T11:49:47;100990.16;;;7.82;39.20
19510;BME280;9896;42.486;26.506;2023-02-12T11:52:23;100986.56;;;7.57;39.34
19510;BME280;9896;42.486;26.506;2023-02-12T11:54:52;100976.50;;;7.51;40.00
19510;BME280;9896;42.486;26.506;2023-02-12T12:00:03;100987.47;;;7.74;39.82
19510;BME280;9896;42.486;26.506;2023-02-12T12:02:33;100985.13;;;7.87;40.01
19510;BME280;9896;42.486;26.506;2023-02-12T12:05:15;100986.41;;;7.67;41.20
19510;BME280;9896;42.486;26.506;2023-02-12T12:07:48;100974.75;;;7.34;43.02
19510;BME280;9896;42.486;26.506;2023-02-12T12:10:34;100984.25;;;7.70;42.68
19510;BME280;9896;42.486;26.506;2023-02-12T12:13:08;100987.34;;;7.16;46.63
19510;BME280;9896;42.486;26.506;2023-02-12T12:15:41;100989.72;;;7.27;48.43
19510;BME280;9896;42.486;26.506;2023-02-12T12:18:49;100985.16;;;7.45;48.99
19510;BME280;9896;42.486;26.506;2023-02-12T12:24:40;100987.19;;;7.93;48.15
19510;BME280;9896;42.486;26.506;2023-02-12T12:27:16;100987.78;;;8.29;47.49
19510;BME280;9896;42.486;26.506;2023-02-12T12:30:03;100986.00;;;7.45;49.71
19510;BME280;9896;42.486;26.506;2023-02-12T12:32:34;100988.00;;;7.43;49.43
19510;BME280;9896;42.486;26.506;2023-02-12T12:35:02;101000.44;;;7.35;49.54
19510;BME280;9896;42.486;26.506;2023-02-12T12:37:59;100994.69;;;7.47;48.38
19510;BME280;9896;42.486;26.506;2023-02-12T12:43:28;101004.69;;;7.45;49.30
19510;BME280;9896;42.486;26.506;2023-02-12T12:46:13;101004.09;;;6.82;52.23
19510;BME280;9896;42.486;26.506;2023-02-12T12:51:41;101025.63;;;6.63;53.54
19510;BME280;9896;42.486;26.506;2023-02-12T12:57:27;101029.25;;;6.09;59.12
19510;BME280;9896;42.486;26.506;2023-02-12T13:00:11;101043.03;;;6.22;60.51
19510;BME280;9896;42.486;26.506;2023-02-12T13:03:04;101037.63;;;6.32;60.71
19510;BME280;9896;42.486;26.506;2023-02-12T13:12:35;101055.38;;;5.96;61.58
19510;BME280;9896;42.486;26.506;2023-02-12T13:17:34;101073.84;;;6.07;60.74
19510;BME280;9896;42.486;26.506;2023-02-12T13:23:14;101082.63;;;6.07;60.91
19510;BME280;9896;42.486;26.506;2023-02-12T13:28:45;101088.31;;;5.85;61.53
19510;BME280;9896;42.486;26.506;2023-02-12T13:31:16;101089.06;;;5.78;61.73
19510;BME280;9896;42.486;26.506;2023-02-12T13:33:53;101094.94;;;5.81;62.22
19510;BME280;9896;42.486;26.506;2023-02-12T13:36:20;101103.91;;;5.90;62.13
19510;BME280;9896;42.486;26.506;2023-02-12T13:41:24;101116.06;;;5.92;61.61
19510;BME280;9896;42.486;26.506;2023-02-12T13:55:27;101133.03;;;5.82;60.92
19510;BME280;9896;42.486;26.506;2023-02-12T14:01:02;101140.06;;;5.73;62.33
19510;BME280;9896;42.486;26.506;2023-02-12T14:03:29;101146.22;;;5.74;62.63
19510;BME280;9896;42.486;26.506;2023-02-12T14:06:18;101150.03;;;5.61;63.23
19510;BME280;9896;42.486;26.506;2023-02-12T14:08:53;101147.41;;;5.52;63.65
19510;BME280;9896;42.486;26.506;2023-02-12T14:11:31;101151.78;;;5.34;63.76
19510;BME280;9896;42.486;26.506;2023-02-12T14:14:00;101160.28;;;5.47;63.68
19510;BME280;9896;42.486;26.506;2023-02-12T14:21:57;101177.94;;;5.48;63.87
19510;BME280;9896;42.486;26.506;2023-02-12T14:24:47;101181.44;;;5.39;64.36
19510;BME280;9896;42.486;26.506;2023-02-12T14:27:26;101187.47;;;5.41;64.40
19510;BME280;9896;42.486;26.506;2023-02-12T14:35:36;101199.06;;;5.40;64.85
19510;BME280;9896;42.486;26.506;2023-02-12T14:40:46;101198.94;;;5.32;65.78
19510;BME280;9896;42.486;26.506;2023-02-12T14:43:34;101216.03;;;5.29;65.92
19510;BME280;9896;42.486;26.506;2023-02-12T14:51:57;101210.97;;;5.17;67.09
19510;BME280;9896;42.486;26.506;2023-02-12T14:56:53;101226.53;;;5.21;67.26
19510;BME280;9896;42.486;26.506;2023-02-12T14:59:22;101248.75;;;5.20;67.13
19510;BME280;9896;42.486;26.506;2023-02-12T15:01:49;101241.75;;;5.09;67.69
19510;BME280;9896;42.486;26.506;2023-02-12T15:04:27;101237.13;;;5.02;67.30
19510;BME280;9896;42.486;26.506;2023-02-12T15:06:58;101253.63;;;5.05;67.78
19510;BME280;9896;42.486;26.506;2023-02-12T15:09:30;101257.53;;;5.01;67.86
19510;BME280;9896;42.486;26.506;2023-02-12T15:14:34;101260.47;;;4.98;67.95
19510;BME280;9896;42.486;26.506;2023-02-12T15:17:09;101276.66;;;4.86;68.66
19510;BME280;9896;42.486;26.506;2023-02-12T15:22:23;101276.66;;;4.76;69.48
19510;BME280;9896;42.486;26.506;2023-02-12T15:24:49;101280.00;;;4.68;70.48
19510;BME280;9896;42.486;26.506;2023-02-12T15:27:16;101299.69;;;4.66;71.24
19510;BME280;9896;42.486;26.506;2023-02-12T15:29:53;101299.00;;;4.64;71.58
19510;BME280;9896;42.486;26.506;2023-02-12T15:32:27;101298.56;;;4.59;71.53
19510;BME280;9896;42.486;26.506;2023-02-12T15:34:54;101306.91;;;4.54;71.36
19510;BME280;9896;42.486;26.506;2023-02-12T15:37:25;101311.66;;;4.51;72.14
19510;BME280;9896;42.486;26.506;2023-02-12T15:39:56;101330.34;;;4.40;72.23
19510;BME280;9896;42.486;26.506;2023-02-12T15:42:36;101334.09;;;4.37;73.02
19510;BME280;9896;42.486;26.506;2023-02-12T15:47:42;101347.16;;;4.29;73.49
19510;BME280;9896;42.486;26.506;2023-02-12T15:52:43;101349.59;;;4.11;74.11
19510;BME280;9896;42.486;26.506;2023-02-12T15:55:19;101353.47;;;4.07;74.81
19510;BME280;9896;42.486;26.506;2023-02-12T15:57:51;101338.13;;;4.11;74.67